createdAt,value
2022-08-12T00:02:04.248Z,85.57
2022-08-12T00:04:53.215Z,86.04
2022-08-12T00:07:39.412Z,86.71
2022-08-12T00:10:26.273Z,86.51
2022-08-12T00:13:12.656Z,85.83
2022-08-12T00:16:02.153Z,84.82
2022-08-12T00:18:48.161Z,83.92
2022-08-12T00:21:37.412Z,83.44
2022-08-12T00:24:24.135Z,83.95
2022-08-12T00:27:09.672Z,83.39
2022-08-12T00:29:55.477Z,83.94
2022-08-12T00:32:48.997Z,83.80
2022-08-12T00:35:42.926Z,83.99
2022-08-12T00:38:31.831Z,84.22
2022-08-12T00:41:18.031Z,84.10
2022-08-12T00:43:47.821Z,84.15
2022-08-12T00:46:36.469Z,84.39
2022-08-12T00:49:05.646Z,84.37
2022-08-12T00:51:48.111Z,84.90
2022-08-12T00:54:18.413Z,84.70
2022-08-12T00:56:51.231Z,85.42
2022-08-12T00:59:19.955Z,85.55
2022-08-12T01:02:02.350Z,85.94
2022-08-12T01:04:57.296Z,85.62
2022-08-12T01:07:43.596Z,85.39
2022-08-12T01:10:32.952Z,85.12
2022-08-12T01:13:18.599Z,84.50
2022-08-12T01:15:50.569Z,84.44
2022-08-12T01:18:19.412Z,84.55
2022-08-12T01:20:51.481Z,84.12
2022-08-12T01:23:38.054Z,83.50
2022-08-12T01:26:10.147Z,84.28
2022-08-12T01:28:39.932Z,85.71
2022-08-12T01:31:09.788Z,86.05
2022-08-12T01:33:45.320Z,86.68
2022-08-12T01:36:15.562Z,86.28
2022-08-12T01:38:44.617Z,87.25
2022-08-12T01:41:16.613Z,87.85
2022-08-12T01:43:45.654Z,88.05
2022-08-12T01:46:25.611Z,87.33
2022-08-12T01:49:04.826Z,87.35
2022-08-12T01:52:20.745Z,87.16
2022-08-12T01:54:30.202Z,87.33
2022-08-12T01:57:11.004Z,87.39
2022-08-12T01:59:59.270Z,87.31
2022-08-12T02:02:39.602Z,87.34
2022-08-12T02:05:35.414Z,87.04
2022-08-12T02:08:33.159Z,86.53
2022-08-12T02:11:21.525Z,86.80
2022-08-12T02:14:07.640Z,86.96
2022-08-12T02:16:51.933Z,87.39
2022-08-12T02:19:37.273Z,87.58
2022-08-12T02:22:15.451Z,87.82
2022-08-12T02:24:46.026Z,88.29
2022-08-12T02:27:15.464Z,88.39
2022-08-12T02:29:45.236Z,88.31
2022-08-12T02:32:13.577Z,88.19
2022-08-12T02:34:41.948Z,88.05
2022-08-12T02:37:10.646Z,88.44
2022-08-12T02:39:41.489Z,87.89
2022-08-12T02:42:12.039Z,88.37
2022-08-12T02:44:42.933Z,88.58
2022-08-12T02:47:58.751Z,88.32
2022-08-12T02:50:05.122Z,88.88
2022-08-12T02:52:35.019Z,88.94
2022-08-12T02:55:12.858Z,89.73
2022-08-12T02:57:57.405Z,89.56
2022-08-12T03:00:28.796Z,89.98
2022-08-12T03:02:59.906Z,90.04
2022-08-12T03:05:28.140Z,91.01
2022-08-12T03:08:00.267Z,91.95
2022-08-12T03:10:37.194Z,91.66
2022-08-12T03:13:08.288Z,92.57
2022-08-12T03:15:37.773Z,92.78
2022-08-12T03:18:26.185Z,92.75
2022-08-12T03:20:58.298Z,92.37
2022-08-12T03:23:29.646Z,92.57
2022-08-12T03:26:00.747Z,92.83
2022-08-12T03:28:48.510Z,92.83
2022-08-12T03:31:16.844Z,92.14
2022-08-12T03:34:01.827Z,91.37
2022-08-12T03:36:33.625Z,90.95
2022-08-12T03:39:17.081Z,90.63
2022-08-12T03:41:50.179Z,89.78
2022-08-12T03:44:42.797Z,89.87
2022-08-12T03:47:32.018Z,90.32
2022-08-12T03:50:18.911Z,90.37
2022-08-12T03:53:04.573Z,90.67
2022-08-12T03:55:50.173Z,90.59
2022-08-12T03:58:35.710Z,90.69
2022-08-12T04:01:04.092Z,90.80
2022-08-12T04:03:50.818Z,90.19
2022-08-12T04:06:35.229Z,90.02
2022-08-12T04:09:16.037Z,90.12
2022-08-12T04:12:03.090Z,90.04
2022-08-12T04:14:31.850Z,90.22
2022-08-12T04:17:00.073Z,90.60
2022-08-12T04:19:28.891Z,91.37
2022-08-12T04:22:01.139Z,91.58
2022-08-12T04:24:30.987Z,91.62
2022-08-12T04:26:59.291Z,91.63
2022-08-12T04:30:30.176Z,91.91
2022-08-12T04:32:16.740Z,91.83
2022-08-12T04:34:45.199Z,92.06
2022-08-12T04:37:16.083Z,92.32
2022-08-12T04:39:45.821Z,92.80
2022-08-12T04:42:14.307Z,93.19
2022-08-12T04:44:44.511Z,93.13
2022-08-12T04:47:13.343Z,93.02
2022-08-12T04:49:42.010Z,92.78
2022-08-12T04:52:11.444Z,92.74
2022-08-12T04:54:41.063Z,92.11
2022-08-12T04:57:09.850Z,91.86
2022-08-12T04:59:48.191Z,91.80
2022-08-12T05:02:21.653Z,91.56
2022-08-12T05:05:00.631Z,90.94
2022-08-12T05:07:29.657Z,91.08
2022-08-12T05:10:02.074Z,91.54
2022-08-12T05:12:37.526Z,91.77
2022-08-12T05:15:19.538Z,91.78
2022-08-12T05:17:55.667Z,91.87
2022-08-12T05:20:26.137Z,91.87
2022-08-12T05:23:12.688Z,92.49
2022-08-12T05:25:43.613Z,92.02
2022-08-12T05:28:13.135Z,92.41
2022-08-12T05:30:42.697Z,92.27
2022-08-12T05:33:12.226Z,92.02
2022-08-12T05:35:43.167Z,91.66
2022-08-12T05:38:30.332Z,92.10
2022-08-12T05:41:00.463Z,92.10
2022-08-12T05:43:29.049Z,91.96
2022-08-12T05:45:57.596Z,91.69
2022-08-12T05:48:25.738Z,91.68
2022-08-12T05:50:53.871Z,91.60
2022-08-12T05:53:22.113Z,91.48
2022-08-12T05:55:50.304Z,91.39
2022-08-12T05:58:20.633Z,91.81
2022-08-12T06:00:48.824Z,91.82
2022-08-12T06:03:19.765Z,91.56
2022-08-12T06:05:55.071Z,91.88
2022-08-12T06:08:24.479Z,91.56
2022-08-12T06:10:53.091Z,91.63
2022-08-12T06:13:27.945Z,91.56
2022-08-12T06:15:57.311Z,91.30
2022-08-12T06:18:29.730Z,89.47
2022-08-12T06:21:01.880Z,87.43
2022-08-12T06:23:31.830Z,87.24
2022-08-12T06:26:00.754Z,85.23
2022-08-12T06:28:31.049Z,84.67
2022-08-12T06:31:24.790Z,83.86
2022-08-12T06:33:57.664Z,83.13
2022-08-12T06:36:33.589Z,83.88
2022-08-12T06:39:02.212Z,82.76
2022-08-12T06:42:27.752Z,83.01
2022-08-12T06:44:37.600Z,83.69
2022-08-12T06:47:06.102Z,83.64
2022-08-12T06:49:36.776Z,83.37
2022-08-12T06:52:07.464Z,83.02
2022-08-12T06:54:35.589Z,83.55
2022-08-12T06:57:56.880Z,82.87
2022-08-12T06:59:53.498Z,83.41
2022-08-12T07:02:23.038Z,82.29
2022-08-12T07:04:55.034Z,81.51
2022-08-12T07:07:23.224Z,80.65
2022-08-12T07:10:04.048Z,78.91
2022-08-12T07:12:36.967Z,78.31
2022-08-12T07:15:08.381Z,78.51
2022-08-12T07:17:39.151Z,77.40
2022-08-12T07:20:29.526Z,76.12
2022-08-12T07:23:00.385Z,76.39
2022-08-12T07:25:40.648Z,77.38
2022-08-12T07:28:16.400Z,77.17
2022-08-12T07:30:48.586Z,76.64
2022-08-12T07:33:18.018Z,76.01
2022-08-12T07:45:13.593Z,75.30
2022-08-12T07:47:43.958Z,74.39
2022-08-12T07:50:13.739Z,73.29
2022-08-12T07:52:43.938Z,72.25
2022-08-12T07:55:12.856Z,71.65
2022-08-12T07:57:50.352Z,72.14
2022-08-12T08:00:18.941Z,71.13
2022-08-12T08:02:49.378Z,72.00
2022-08-12T08:05:18.907Z,69.84
2022-08-12T08:07:48.738Z,69.31
2022-08-12T08:10:18.420Z,69.66
2022-08-12T08:12:56.401Z,70.65
2022-08-12T08:15:51.087Z,69.84
2022-08-12T08:18:26.339Z,67.11
2022-08-12T08:20:56.693Z,66.88
2022-08-12T08:23:55.583Z,66.28
2022-08-12T08:26:27.147Z,66.85
2022-08-12T08:28:55.603Z,65.07
2022-08-12T08:31:23.766Z,65.25
2022-08-12T08:34:09.118Z,65.87
2022-08-12T08:36:44.036Z,63.00
2022-08-12T08:39:17.028Z,60.70
2022-08-12T08:42:19.186Z,60.38
2022-08-12T08:44:50.354Z,61.34
2022-08-12T08:47:26.993Z,59.64
2022-08-12T08:50:01.315Z,59.06
2022-08-12T08:52:39.388Z,57.25
2022-08-12T08:55:10.520Z,56.08
2022-08-12T08:57:43.875Z,55.07
2022-08-12T09:00:16.487Z,56.49
2022-08-12T09:02:49.190Z,56.38
2022-08-12T09:05:43.204Z,56.06
2022-08-12T09:08:23.135Z,58.05
2022-08-12T09:12:07.633Z,54.37
2022-08-12T09:14:18.665Z,53.95
2022-08-12T09:16:50.157Z,54.70
2022-08-12T09:19:27.308Z,56.96
2022-08-12T09:22:00.167Z,54.64
2022-08-12T09:24:30.923Z,53.56
2022-08-12T09:27:00.115Z,53.00
2022-08-12T09:30:12.040Z,52.98
2022-08-12T09:32:56.161Z,51.87
2022-08-12T09:35:21.988Z,52.07
2022-08-12T09:37:58.661Z,51.01
2022-08-12T09:40:56.140Z,50.38
2022-08-12T09:43:32.627Z,50.01
2022-08-12T09:46:06.525Z,49.21
2022-08-12T09:48:56.384Z,46.19
2022-08-12T09:51:37.618Z,45.93
2022-08-12T09:54:32.645Z,46.60
2022-08-12T09:57:03.887Z,45.57
2022-08-12T10:00:15.330Z,43.51
2022-08-12T10:02:45.121Z,43.65
2022-08-12T10:05:20.628Z,44.72
2022-08-12T10:07:49.582Z,46.82
2022-08-12T10:10:22.340Z,47.21
2022-08-12T10:13:09.076Z,45.66
2022-08-12T10:16:02.978Z,45.37
2022-08-12T10:18:27.547Z,43.99
2022-08-12T10:20:57.137Z,43.61
2022-08-12T10:23:39.392Z,44.42
2022-08-12T10:26:36.607Z,43.40
2022-08-12T10:30:11.866Z,42.72
2022-08-12T10:32:20.815Z,41.23
2022-08-12T10:34:53.384Z,38.65
2022-08-12T10:38:34.201Z,39.84
2022-08-12T10:40:20.430Z,39.38
2022-08-12T10:43:08.883Z,40.25
2022-08-12T10:45:38.388Z,41.46
2022-08-12T10:48:21.768Z,41.68
2022-08-12T10:51:03.344Z,40.31
2022-08-12T10:53:46.769Z,37.33
2022-08-12T10:56:16.215Z,37.30
2022-08-12T10:58:47.969Z,35.29
2022-08-12T11:01:50.143Z,35.49
2022-08-12T11:04:19.436Z,36.58
2022-08-12T11:07:05.631Z,37.13
2022-08-12T11:10:00.355Z,37.93
2022-08-12T11:12:55.020Z,36.56
2022-08-12T11:16:04.094Z,36.25
2022-08-12T11:18:46.118Z,36.30
2022-08-12T11:21:58.504Z,35.26
2022-08-12T11:24:51.601Z,34.40
2022-08-12T11:27:21.971Z,34.19
2022-08-12T11:30:06.518Z,35.10
2022-08-12T11:32:39.196Z,34.29
2022-08-12T11:35:09.253Z,34.79
2022-08-12T11:37:58.467Z,34.81
2022-08-12T11:40:28.489Z,34.75
2022-08-12T11:43:00.684Z,36.18
2022-08-12T11:45:46.906Z,37.01
2022-08-12T11:48:17.095Z,36.21
2022-08-12T11:50:46.960Z,36.46
2022-08-12T11:53:59.519Z,37.04
2022-08-12T11:56:06.529Z,37.33
2022-08-12T12:01:02.698Z,36.01
2022-08-12T12:02:02.557Z,36.56
2022-08-12T12:04:22.656Z,36.64
2022-08-12T12:07:06.995Z,37.09
2022-08-12T12:09:52.608Z,36.21
2022-08-12T12:12:23.426Z,37.39
2022-08-12T12:14:55.010Z,37.32
2022-08-12T12:17:24.809Z,36.85
2022-08-12T12:19:55.194Z,38.21
2022-08-12T12:22:30.805Z,38.58
2022-08-12T12:25:12.598Z,39.13
2022-08-12T12:28:05.162Z,38.22
2022-08-12T12:30:34.972Z,37.84
2022-08-12T12:33:03.187Z,37.60
2022-08-12T12:36:05.964Z,37.29
2022-08-12T12:38:25.465Z,37.23
2022-08-12T12:40:54.156Z,37.54
2022-08-12T12:43:28.929Z,37.53
2022-08-12T12:46:10.669Z,38.16
2022-08-12T12:48:44.078Z,38.38
2022-08-12T12:51:48.162Z,37.70
2022-08-12T12:54:10.551Z,38.27
2022-08-12T12:56:42.722Z,38.08
2022-08-12T12:59:34.970Z,37.62
2022-08-12T13:02:02.098Z,37.23
2022-08-12T13:04:37.159Z,38.27
2022-08-12T13:07:08.066Z,38.14
2022-08-12T13:09:37.002Z,38.41
2022-08-12T13:12:08.991Z,39.11
2022-08-12T13:14:39.589Z,38.65
2022-08-12T13:17:09.724Z,37.55
2022-08-12T13:19:46.820Z,37.13
2022-08-12T13:22:21.414Z,36.60
2022-08-12T13:24:55.721Z,37.03
2022-08-12T13:27:35.061Z,37.26
2022-08-12T13:30:13.061Z,36.99
2022-08-12T13:32:42.715Z,37.20
2022-08-12T13:35:19.730Z,37.16
2022-08-12T13:37:55.217Z,36.90
2022-08-12T13:40:25.018Z,36.44
2022-08-12T13:42:58.021Z,36.32
2022-08-12T13:45:26.977Z,36.87
2022-08-12T13:48:00.047Z,37.21
2022-08-12T13:50:32.632Z,37.33
2022-08-12T13:53:23.163Z,38.23
2022-08-12T13:55:59.667Z,36.79
2022-08-12T13:58:32.770Z,36.99
2022-08-12T14:01:05.766Z,37.79
2022-08-12T14:03:51.430Z,36.93
2022-08-12T14:06:21.670Z,36.21
2022-08-12T14:08:56.430Z,37.04
2022-08-12T14:11:27.838Z,37.29
2022-08-12T14:14:06.127Z,36.88
2022-08-12T14:16:49.046Z,37.54
2022-08-12T14:19:22.366Z,37.61
2022-08-12T14:22:00.501Z,37.52
2022-08-12T14:24:40.918Z,37.60
2022-08-12T14:27:11.021Z,37.29
2022-08-12T14:30:04.869Z,36.71
2022-08-12T14:32:34.610Z,35.38
2022-08-12T14:35:09.417Z,36.89
2022-08-12T14:37:57.414Z,36.79
2022-08-12T14:40:29.598Z,35.36
2022-08-12T14:42:58.861Z,36.37
2022-08-12T14:45:45.401Z,35.83
2022-08-12T14:48:18.635Z,34.75
2022-08-12T14:51:02.821Z,33.92
2022-08-12T14:55:18.225Z,33.81
2022-08-12T14:59:57.446Z,34.48
2022-08-12T15:02:21.742Z,35.44
2022-08-12T15:04:59.591Z,36.35
2022-08-12T15:07:33.609Z,37.33
2022-08-12T15:10:31.725Z,37.06
2022-08-12T15:13:07.338Z,37.17
2022-08-12T15:15:45.542Z,36.77
2022-08-12T15:18:21.086Z,36.40
2022-08-12T15:20:51.431Z,36.49
2022-08-12T15:23:21.629Z,36.10
2022-08-12T15:26:00.059Z,35.67
2022-08-12T15:28:34.402Z,35.69
2022-08-12T15:31:02.735Z,34.60
2022-08-12T15:33:44.782Z,33.84
2022-08-12T15:36:14.550Z,33.72
2022-08-12T15:38:47.956Z,33.45
2022-08-12T15:41:16.497Z,34.44
2022-08-12T15:44:17.026Z,34.57
2022-08-12T15:46:34.439Z,35.64
2022-08-12T15:49:03.988Z,35.77
2022-08-12T15:51:58.831Z,35.50
2022-08-12T15:54:35.181Z,34.71
2022-08-12T15:57:07.725Z,34.90
2022-08-12T15:59:51.717Z,34.19
2022-08-12T16:02:41.892Z,34.04
2022-08-12T16:06:12.956Z,33.64
2022-08-12T16:08:18.453Z,32.79
2022-08-12T16:10:48.835Z,32.97
2022-08-12T16:13:32.262Z,32.85
2022-08-12T16:16:03.797Z,33.41
2022-08-12T16:18:35.663Z,33.86
2022-08-12T16:21:09.376Z,33.78
2022-08-12T16:23:55.755Z,33.86
2022-08-12T16:26:32.191Z,34.17
2022-08-12T16:29:14.776Z,34.85
2022-08-12T16:31:46.690Z,34.54
2022-08-12T16:34:42.166Z,34.76
2022-08-12T16:37:08.133Z,34.85
2022-08-12T16:40:01.229Z,35.37
2022-08-12T16:42:28.511Z,35.03
2022-08-12T16:44:59.618Z,35.06
2022-08-12T16:47:57.400Z,34.78
2022-08-12T16:50:31.092Z,34.90
2022-08-12T16:52:59.889Z,34.66
2022-08-12T16:55:41.981Z,36.15
2022-08-12T16:58:18.682Z,36.11
2022-08-12T17:00:57.073Z,36.60
2022-08-12T17:03:28.779Z,37.19
2022-08-12T17:05:58.632Z,38.07
2022-08-12T17:08:28.997Z,37.60
2022-08-12T17:10:59.072Z,40.00
2022-08-12T17:13:28.556Z,43.10
2022-08-12T17:16:06.141Z,47.11
2022-08-12T17:18:45.496Z,51.22
2022-08-12T17:21:41.786Z,52.96
2022-08-12T17:24:22.365Z,53.74
2022-08-12T17:26:54.124Z,54.58
2022-08-12T17:29:24.379Z,55.44
2022-08-12T17:32:14.913Z,55.54
2022-08-12T17:35:01.994Z,56.34
2022-08-12T17:37:30.167Z,57.09
2022-08-12T17:40:12.099Z,56.63
2022-08-12T17:42:47.297Z,57.29
2022-08-12T17:45:19.367Z,58.27
2022-08-12T17:48:04.637Z,58.99
2022-08-12T17:50:38.134Z,59.21
2022-08-12T17:53:10.085Z,58.41
2022-08-12T17:55:47.268Z,57.22
2022-08-12T17:58:17.754Z,57.55
2022-08-12T18:00:48.085Z,57.59
2022-08-12T18:03:58.031Z,58.11
2022-08-12T18:06:14.060Z,58.67
2022-08-12T18:08:53.469Z,59.08
2022-08-12T18:12:06.693Z,59.17
2022-08-12T18:14:31.450Z,59.89
2022-08-12T18:17:02.440Z,60.67
2022-08-12T18:20:03.790Z,60.75
2022-08-12T18:22:30.576Z,61.38
2022-08-12T18:25:03.719Z,62.04
2022-08-12T18:27:44.832Z,62.69
2022-08-12T18:30:20.362Z,62.82
2022-08-12T18:32:59.243Z,63.23
2022-08-12T18:35:46.529Z,62.96
2022-08-12T18:38:19.046Z,63.06
2022-08-12T18:41:06.081Z,63.14
2022-08-12T18:43:57.206Z,63.22
2022-08-12T18:46:29.853Z,63.84
2022-08-12T18:49:17.667Z,64.15
2022-08-12T18:51:55.213Z,64.60
2022-08-12T18:54:35.171Z,65.02
2022-08-12T18:57:16.791Z,65.66
2022-08-12T19:00:02.097Z,65.46
2022-08-12T19:02:44.574Z,65.48
2022-08-12T19:05:52.927Z,65.98
2022-08-12T19:08:16.958Z,65.68
2022-08-12T19:10:51.254Z,66.33
2022-08-12T19:13:37.767Z,66.72
2022-08-12T19:16:10.929Z,67.71
2022-08-12T19:18:45.137Z,68.46
2022-08-12T19:21:16.617Z,69.25
2022-08-12T19:24:05.808Z,69.00
2022-08-12T19:26:35.129Z,69.35
2022-08-12T19:29:05.135Z,69.75
2022-08-12T19:31:58.048Z,70.17
2022-08-12T19:37:27.213Z,70.84
2022-08-12T19:40:09.197Z,71.23
2022-08-12T19:42:53.406Z,71.56
2022-08-12T19:45:41.790Z,71.87
2022-08-12T19:48:16.529Z,71.89
2022-08-12T19:50:49.861Z,71.83
2022-08-12T19:53:19.437Z,71.70
2022-08-12T19:55:50.753Z,71.98
2022-08-12T19:58:22.907Z,71.78
2022-08-12T20:00:54.706Z,72.20
2022-08-12T20:03:40.579Z,73.05
2022-08-12T20:06:21.598Z,73.44
2022-08-12T20:08:56.426Z,73.30
2022-08-12T20:12:12.608Z,73.02
2022-08-12T20:14:19.283Z,73.80
2022-08-12T20:16:51.845Z,73.78
2022-08-12T20:19:52.344Z,73.59
2022-08-12T20:22:16.748Z,74.16
2022-08-12T20:24:54.958Z,74.65
2022-08-12T20:27:29.330Z,74.55
2022-08-12T20:30:16.256Z,74.34
2022-08-12T20:32:53.942Z,74.42
2022-08-12T20:35:24.782Z,74.17
2022-08-12T20:38:06.795Z,74.53
2022-08-12T20:40:42.336Z,74.31
2022-08-12T20:43:19.129Z,74.71
2022-08-12T20:45:57.413Z,74.37
2022-08-12T20:48:29.395Z,74.40
2022-08-12T20:51:04.399Z,74.49
2022-08-12T20:53:58.281Z,74.42
2022-08-12T20:56:30.250Z,74.25
2022-08-12T20:59:05.041Z,74.36
2022-08-12T21:01:45.908Z,74.11
2022-08-12T21:04:34.396Z,74.11
2022-08-12T21:07:09.396Z,73.71
2022-08-12T21:09:42.542Z,74.10
2022-08-12T21:12:31.595Z,73.86
2022-08-12T21:15:18.121Z,74.57
2022-08-12T21:18:11.237Z,74.57
2022-08-12T21:20:52.714Z,76.08
2022-08-12T21:23:22.948Z,75.57
2022-08-12T21:25:52.664Z,75.93
2022-08-12T21:28:31.284Z,76.38
2022-08-12T21:32:36.284Z,75.99
2022-08-12T21:34:08.668Z,75.90
2022-08-12T21:36:39.793Z,75.38
2022-08-12T21:39:18.106Z,75.84
2022-08-12T21:41:51.002Z,75.07
2022-08-12T21:44:24.150Z,75.38
2022-08-12T21:47:12.138Z,75.82
2022-08-12T21:50:04.043Z,76.82
2022-08-12T21:52:36.596Z,77.37
2022-08-12T21:55:08.297Z,77.53
2022-08-12T21:57:50.786Z,77.54
2022-08-12T22:00:21.316Z,76.78
2022-08-12T22:03:07.751Z,76.75
2022-08-12T22:05:55.025Z,75.84
2022-08-12T22:08:26.060Z,75.41
2022-08-12T22:10:56.305Z,75.97
2022-08-12T22:14:04.261Z,77.40
2022-08-12T22:16:14.557Z,78.92
2022-08-12T22:18:50.157Z,78.44
2022-08-12T22:21:22.212Z,78.23
2022-08-12T22:24:05.478Z,77.46
2022-08-12T22:26:37.452Z,78.51
2022-08-12T22:29:27.364Z,79.26
2022-08-12T22:31:56.149Z,79.07
2022-08-12T22:34:33.304Z,78.61
2022-08-12T22:37:05.737Z,77.87
2022-08-12T22:39:44.121Z,77.49
2022-08-12T22:42:30.771Z,78.23
2022-08-12T22:45:31.875Z,79.38
2022-08-12T22:48:21.963Z,80.46
2022-08-12T22:50:59.225Z,80.75
2022-08-12T22:53:36.201Z,80.35
2022-08-12T22:56:07.251Z,80.09
2022-08-12T22:58:40.601Z,80.61
2022-08-12T23:01:21.148Z,81.81
2022-08-12T23:04:00.485Z,82.08
2022-08-12T23:06:31.167Z,82.10
2022-08-12T23:09:00.857Z,82.04
2022-08-12T23:11:33.893Z,81.62
2022-08-12T23:14:09.286Z,81.33
2022-08-12T23:16:40.744Z,80.82
2022-08-12T23:19:17.596Z,80.94
2022-08-12T23:22:06.332Z,80.93
2022-08-12T23:24:53.732Z,81.20
2022-08-12T23:27:50.283Z,81.03
2022-08-12T23:30:24.922Z,81.17
2022-08-12T23:33:00.623Z,81.27
2022-08-12T23:35:58.789Z,81.21
2022-08-12T23:38:28.949Z,81.28
2022-08-12T23:41:03.630Z,81.44
2022-08-12T23:43:38.967Z,82.05
2022-08-12T23:46:10.543Z,82.02
2022-08-12T23:48:38.846Z,82.51
2022-08-12T23:51:23.655Z,83.05
2022-08-12T23:53:55.352Z,83.04
2022-08-12T23:56:25.921Z,83.14
2022-08-12T23:58:57.564Z,83.26
